createdAt,value
2023-12-19T00:01:16.519Z,101028.09
2023-12-19T00:03:43.250Z,101019.44
2023-12-19T00:06:09.730Z,101019.28
2023-12-19T00:08:37.461Z,101016.91
2023-12-19T00:11:04.295Z,101010.53
2023-12-19T00:13:30.706Z,101013.94
2023-12-19T00:15:57.308Z,101018.13
2023-12-19T00:18:23.983Z,101028.63
2023-12-19T00:20:53.918Z,101015.25
2023-12-19T00:23:20.486Z,101019.28
2023-12-19T00:25:47.244Z,101020.13
2023-12-19T00:28:14.955Z,101024.00
2023-12-19T00:30:41.645Z,101021.97
2023-12-19T00:33:08.311Z,101024.81
2023-12-19T00:35:34.927Z,101023.88
2023-12-19T00:38:04.465Z,101027.13
2023-12-19T00:40:30.969Z,101026.25
2023-12-19T00:42:57.569Z,101027.00
2023-12-19T00:45:24.117Z,101027.69
2023-12-19T00:47:50.721Z,101036.63
2023-12-19T00:50:17.326Z,101035.50
2023-12-19T00:52:44.220Z,101035.28
2023-12-19T00:55:11.049Z,101030.00
2023-12-19T00:57:37.681Z,101033.78
2023-12-19T01:00:05.276Z,101031.88
2023-12-19T01:02:34.496Z,101024.63
2023-12-19T01:05:01.110Z,101011.34
2023-12-19T01:07:27.680Z,101015.38
2023-12-19T01:09:54.428Z,101019.00
2023-12-19T01:12:21.454Z,101020.00
2023-12-19T01:14:48.083Z,101016.81
2023-12-19T01:17:14.750Z,101023.94
2023-12-19T01:19:42.168Z,101024.53
2023-12-19T01:22:08.740Z,101025.69
2023-12-19T01:24:35.612Z,101023.22
2023-12-19T01:27:02.178Z,101023.88
2023-12-19T01:29:28.625Z,101022.25
2023-12-19T01:31:55.248Z,101030.22
2023-12-19T01:34:22.243Z,101016.38
2023-12-19T01:36:56.912Z,101024.66
2023-12-19T01:39:24.819Z,101025.44
2023-12-19T01:41:51.410Z,101018.53
2023-12-19T01:44:19.284Z,101007.28
2023-12-19T01:46:47.608Z,101006.31
2023-12-19T01:49:14.731Z,101002.78
2023-12-19T01:51:41.877Z,100985.09
2023-12-19T01:54:10.128Z,100977.13
2023-12-19T01:56:37.370Z,100973.69
2023-12-19T01:59:06.547Z,100964.38
2023-12-19T02:01:36.165Z,100965.81
2023-12-19T02:04:03.218Z,100965.91
2023-12-19T02:06:34.275Z,100976.69
2023-12-19T02:09:02.310Z,100952.41
2023-12-19T02:11:30.005Z,100953.78
2023-12-19T02:13:59.359Z,100947.66
2023-12-19T02:16:27.666Z,100938.13
2023-12-19T02:19:20.733Z,100947.75
2023-12-19T02:21:47.391Z,100952.31
2023-12-19T02:24:13.977Z,100957.19
2023-12-19T02:26:41.360Z,100952.91
2023-12-19T02:29:07.879Z,100950.47
2023-12-19T02:31:34.508Z,100952.97
2023-12-19T02:34:01.119Z,100947.44
2023-12-19T02:36:27.836Z,100953.72
2023-12-19T02:38:54.424Z,100952.63
2023-12-19T02:41:21.002Z,100961.22
2023-12-19T02:43:54.193Z,100960.97
2023-12-19T02:46:23.235Z,100962.19
2023-12-19T02:48:49.912Z,100961.81
2023-12-19T02:51:19.738Z,100958.38
2023-12-19T02:53:46.588Z,100970.53
2023-12-19T02:56:13.089Z,100951.69
2023-12-19T02:58:41.380Z,100951.19
2023-12-19T03:01:08.338Z,100949.38
2023-12-19T03:03:35.138Z,100956.91
2023-12-19T03:06:02.413Z,100957.91
2023-12-19T03:08:29.071Z,100957.34
2023-12-19T03:10:57.479Z,100938.97
2023-12-19T03:13:24.051Z,100932.78
2023-12-19T03:15:50.595Z,100938.53
2023-12-19T03:18:17.256Z,100934.69
2023-12-19T03:20:44.643Z,100938.81
2023-12-19T03:23:11.185Z,100930.59
2023-12-19T03:25:37.792Z,100932.38
2023-12-19T03:28:04.865Z,100933.06
2023-12-19T03:30:31.495Z,100928.75
2023-12-19T03:32:58.040Z,100925.16
2023-12-19T03:35:24.588Z,100936.66
2023-12-19T03:37:51.682Z,100929.34
2023-12-19T03:40:18.279Z,100937.31
2023-12-19T03:42:45.238Z,100935.94
2023-12-19T03:45:12.085Z,100930.19
2023-12-19T03:47:39.593Z,100935.22
2023-12-19T03:50:07.223Z,100931.34
2023-12-19T03:52:34.006Z,100920.81
2023-12-19T03:55:00.970Z,100917.34
2023-12-19T03:57:28.181Z,100921.91
2023-12-19T03:59:55.569Z,100924.66
2023-12-19T04:02:22.110Z,100922.59
2023-12-19T04:04:48.652Z,100928.09
2023-12-19T04:07:15.171Z,100929.16
2023-12-19T04:09:41.881Z,100927.81
2023-12-19T04:12:10.398Z,100924.69
2023-12-19T04:14:37.100Z,100930.97
2023-12-19T04:17:04.018Z,100932.25
2023-12-19T04:19:30.551Z,100936.72
2023-12-19T04:21:58.997Z,100938.59
2023-12-19T04:24:27.776Z,100937.59
2023-12-19T04:26:54.768Z,100940.03
2023-12-19T04:29:21.307Z,100927.41
2023-12-19T04:31:48.005Z,100942.81
2023-12-19T04:34:15.054Z,100947.00
2023-12-19T04:36:41.836Z,100939.31
2023-12-19T04:39:08.596Z,100937.31
2023-12-19T04:41:35.566Z,100941.97
2023-12-19T04:44:01.978Z,100929.84
2023-12-19T04:46:28.523Z,100929.38
2023-12-19T04:48:56.989Z,100932.44
2023-12-19T04:51:23.820Z,100950.75
2023-12-19T04:53:50.509Z,100950.75
2023-12-19T04:56:18.067Z,100957.78
2023-12-19T04:58:48.811Z,100971.66
2023-12-19T05:01:15.704Z,100978.28
2023-12-19T05:03:43.597Z,100972.28
2023-12-19T05:06:11.120Z,100964.41
2023-12-19T05:08:37.691Z,100967.66
2023-12-19T05:11:04.987Z,100962.09
2023-12-19T05:13:31.547Z,100964.84
2023-12-19T05:15:58.144Z,100953.16
2023-12-19T05:18:24.880Z,100956.75
2023-12-19T05:20:51.578Z,100934.63
2023-12-19T05:23:18.086Z,100945.88
2023-12-19T05:25:44.738Z,100950.28
2023-12-19T05:28:11.351Z,100953.69
2023-12-19T05:30:37.967Z,100941.97
2023-12-19T05:33:04.828Z,100934.56
2023-12-19T05:35:31.870Z,100948.13
2023-12-19T05:37:58.983Z,100946.28
2023-12-19T05:40:25.570Z,100922.63
2023-12-19T05:42:55.656Z,100922.56
2023-12-19T05:45:22.321Z,100910.38
2023-12-19T05:47:49.506Z,100910.13
2023-12-19T05:50:16.261Z,100907.97
2023-12-19T05:52:42.853Z,100908.66
2023-12-19T05:55:09.534Z,100909.75
2023-12-19T05:57:37.875Z,100904.16
2023-12-19T06:00:07.329Z,100901.00
2023-12-19T06:02:34.026Z,100909.03
2023-12-19T06:05:08.528Z,100909.47
2023-12-19T06:07:38.482Z,100911.88
2023-12-19T06:10:12.494Z,100898.50
2023-12-19T06:12:39.905Z,100910.72
2023-12-19T06:15:09.797Z,100905.88
2023-12-19T06:17:36.924Z,100892.63
2023-12-19T06:20:04.359Z,100902.53
2023-12-19T06:22:30.970Z,100913.69
2023-12-19T06:24:57.670Z,100910.19
2023-12-19T06:27:24.264Z,100897.06
2023-12-19T06:29:50.905Z,100879.19
2023-12-19T06:32:17.465Z,100881.00
2023-12-19T06:34:44.136Z,100879.88
2023-12-19T06:37:10.707Z,100888.56
2023-12-19T06:39:37.930Z,100907.88
2023-12-19T06:42:04.838Z,100906.53
2023-12-19T06:44:31.325Z,100899.19
2023-12-19T06:46:58.062Z,100892.44
2023-12-19T06:49:26.175Z,100911.38
2023-12-19T06:51:54.365Z,100908.59
2023-12-19T06:54:20.886Z,100914.44
2023-12-19T06:56:47.451Z,100905.38
2023-12-19T06:59:15.353Z,100912.88
2023-12-19T07:01:41.993Z,100921.88
2023-12-19T07:04:08.582Z,100925.91
2023-12-19T07:06:36.155Z,100929.28
2023-12-19T07:09:02.787Z,100921.22
2023-12-19T07:11:29.408Z,100916.56
2023-12-19T07:13:55.978Z,100917.72
2023-12-19T07:16:23.250Z,100913.72
2023-12-19T07:18:50.442Z,100898.34
2023-12-19T07:21:20.945Z,100895.53
2023-12-19T07:23:47.880Z,100890.53
2023-12-19T07:26:24.421Z,100895.13
2023-12-19T07:28:52.122Z,100895.59
2023-12-19T07:31:22.261Z,100909.00
2023-12-19T07:33:49.049Z,100924.53
2023-12-19T07:36:15.703Z,100927.34
2023-12-19T07:38:42.209Z,100936.81
2023-12-19T07:41:08.749Z,100928.63
2023-12-19T07:43:35.443Z,100915.38
2023-12-19T07:46:04.316Z,100912.03
2023-12-19T07:48:30.995Z,100911.97
2023-12-19T07:50:58.206Z,100918.50
2023-12-19T07:53:28.202Z,100911.16
2023-12-19T07:55:54.733Z,100923.56
2023-12-19T07:58:21.802Z,100916.94
2023-12-19T08:00:48.910Z,100929.81
2023-12-19T08:03:17.062Z,100918.59
2023-12-19T08:05:51.367Z,100923.19
2023-12-19T08:08:21.566Z,100929.47
2023-12-19T08:10:48.148Z,100929.13
2023-12-19T08:13:14.720Z,100935.25
2023-12-19T08:15:41.969Z,100943.44
2023-12-19T08:18:09.035Z,100934.22
2023-12-19T08:20:35.682Z,100940.66
2023-12-19T08:23:02.297Z,100936.97
2023-12-19T08:25:28.964Z,100943.25
2023-12-19T08:27:55.583Z,100951.59
2023-12-19T08:30:25.685Z,100938.09
2023-12-19T08:32:52.358Z,100932.22
2023-12-19T08:35:19.457Z,100931.66
2023-12-19T08:37:46.693Z,100927.97
2023-12-19T08:40:13.331Z,100941.38
2023-12-19T08:42:41.609Z,100937.47
2023-12-19T08:45:18.873Z,100944.72
2023-12-19T08:47:46.530Z,100950.69
2023-12-19T08:50:15.073Z,100939.75
2023-12-19T08:52:42.411Z,100936.28
2023-12-19T08:55:13.634Z,100936.69
2023-12-19T08:57:45.238Z,100925.81
2023-12-19T09:00:19.880Z,100904.56
2023-12-19T09:02:47.572Z,100908.94
2023-12-19T09:05:15.957Z,100903.59
2023-12-19T09:07:43.370Z,100893.75
2023-12-19T09:10:12.712Z,100890.25
2023-12-19T09:12:39.894Z,100887.38
2023-12-19T09:15:08.062Z,100888.03
2023-12-19T09:17:35.362Z,100887.19
2023-12-19T09:20:05.968Z,100884.91
2023-12-19T09:22:33.208Z,100874.78
2023-12-19T09:24:59.932Z,100857.53
2023-12-19T09:27:27.482Z,100851.72
2023-12-19T09:29:54.211Z,100847.34
2023-12-19T09:32:20.796Z,100843.56
2023-12-19T09:34:48.202Z,100839.56
2023-12-19T09:37:15.059Z,100838.88
2023-12-19T09:39:41.768Z,100832.78
2023-12-19T09:42:08.550Z,100830.31
2023-12-19T09:44:35.216Z,100807.88
2023-12-19T09:47:04.008Z,100803.81
2023-12-19T09:49:33.718Z,100792.84
2023-12-19T09:52:00.983Z,100802.16
2023-12-19T09:54:27.841Z,100794.06
2023-12-19T09:56:55.349Z,100788.53
2023-12-19T09:59:22.591Z,100779.66
2023-12-19T10:01:49.434Z,100782.47
2023-12-19T10:04:17.377Z,100778.84
2023-12-19T10:06:57.492Z,100767.38
2023-12-19T10:09:24.234Z,100765.97
2023-12-19T10:12:11.147Z,100757.09
2023-12-19T10:14:38.612Z,100751.66
2023-12-19T10:17:16.387Z,100748.00
2023-12-19T10:19:43.384Z,100747.31
2023-12-19T10:22:17.770Z,100739.84
2023-12-19T10:24:44.416Z,100725.94
2023-12-19T10:27:11.394Z,100732.31
2023-12-19T10:29:38.139Z,100732.31
2023-12-19T10:32:12.229Z,100723.25
2023-12-19T10:34:39.488Z,100716.97
2023-12-19T10:37:13.730Z,100722.34
2023-12-19T10:39:43.763Z,100721.41
2023-12-19T10:42:11.427Z,100719.03
2023-12-19T10:44:41.965Z,100732.13
2023-12-19T10:47:09.372Z,100718.13
2023-12-19T10:49:40.162Z,100713.00
2023-12-19T10:52:13.954Z,100711.34
2023-12-19T10:54:42.915Z,100701.25
2023-12-19T10:57:18.965Z,100702.41
2023-12-19T10:59:57.731Z,100695.94
2023-12-19T11:02:36.357Z,100692.53
2023-12-19T11:05:13.807Z,100684.28
2023-12-19T11:07:44.084Z,100689.75
2023-12-19T11:10:12.355Z,100685.28
2023-12-19T11:12:39.126Z,100679.75
2023-12-19T11:15:06.749Z,100691.94
2023-12-19T11:17:46.855Z,100682.28
2023-12-19T11:20:37.962Z,100670.16
2023-12-19T11:23:18.199Z,100661.13
2023-12-19T11:26:07.098Z,100645.84
2023-12-19T11:28:37.558Z,100628.03
2023-12-19T11:31:04.408Z,100635.91
2023-12-19T11:33:32.420Z,100622.84
2023-12-19T11:36:12.392Z,100628.31
2023-12-19T11:38:38.890Z,100626.78
2023-12-19T11:41:05.413Z,100626.81
2023-12-19T11:43:32.393Z,100633.91
2023-12-19T11:46:17.279Z,100631.84
2023-12-19T11:48:48.462Z,100631.72
2023-12-19T11:51:35.307Z,100626.28
2023-12-19T11:54:01.856Z,100636.63
2023-12-19T11:56:28.379Z,100635.66
2023-12-19T11:58:54.918Z,100640.03
2023-12-19T12:01:24.515Z,100629.22
2023-12-19T12:03:51.260Z,100632.03
2023-12-19T12:06:22.043Z,100628.78
2023-12-19T12:08:54.971Z,100605.78
2023-12-19T12:11:21.512Z,100616.69
2023-12-19T12:14:02.261Z,100628.69
2023-12-19T12:16:39.342Z,100621.97
2023-12-19T12:19:22.362Z,100619.38
2023-12-19T12:21:51.507Z,100615.78
2023-12-19T12:24:20.367Z,100611.13
2023-12-19T12:26:52.859Z,100611.03
2023-12-19T12:29:20.630Z,100607.44
2023-12-19T12:31:48.851Z,100599.00
2023-12-19T12:34:16.308Z,100588.97
2023-12-19T12:36:48.285Z,100582.78
2023-12-19T12:39:20.826Z,100580.19
2023-12-19T12:41:47.486Z,100569.72
2023-12-19T12:44:14.154Z,100571.41
2023-12-19T12:46:45.437Z,100570.44
2023-12-19T12:49:17.051Z,100567.41
2023-12-19T12:51:44.603Z,100561.53
2023-12-19T12:54:11.422Z,100552.69
2023-12-19T12:56:42.106Z,100545.94
2023-12-19T12:59:14.950Z,100544.66
2023-12-19T13:01:43.007Z,100543.91
2023-12-19T13:04:10.827Z,100535.06
2023-12-19T13:06:45.264Z,100542.22
2023-12-19T13:09:16.133Z,100533.00
2023-12-19T13:11:44.042Z,100532.06
2023-12-19T13:14:11.238Z,100519.50
2023-12-19T13:16:38.191Z,100512.00
2023-12-19T13:19:05.157Z,100512.84
2023-12-19T13:21:33.077Z,100519.56
2023-12-19T13:23:59.705Z,100519.88
2023-12-19T13:26:33.964Z,100516.97
2023-12-19T13:29:01.159Z,100511.22
2023-12-19T13:31:28.784Z,100517.94
2023-12-19T13:33:55.548Z,100528.53
2023-12-19T13:36:22.691Z,100523.09
2023-12-19T13:38:50.223Z,100516.97
2023-12-19T13:41:17.694Z,100510.81
2023-12-19T13:43:44.832Z,100514.88
2023-12-19T13:46:12.013Z,100503.16
2023-12-19T13:48:41.617Z,100507.63
2023-12-19T13:51:10.772Z,100497.03
2023-12-19T13:53:37.332Z,100499.97
2023-12-19T13:56:05.923Z,100496.06
2023-12-19T13:58:32.464Z,100504.13
2023-12-19T14:00:59.185Z,100508.88
2023-12-19T14:03:25.830Z,100508.75
2023-12-19T14:05:52.505Z,100500.25
2023-12-19T14:08:19.607Z,100494.91
2023-12-19T14:10:46.398Z,100496.44
2023-12-19T14:13:13.120Z,100501.84
2023-12-19T14:15:40.473Z,100502.03
2023-12-19T14:18:07.332Z,100501.69
2023-12-19T14:20:33.794Z,100496.22
2023-12-19T14:23:02.117Z,100490.97
2023-12-19T14:25:29.204Z,100491.19
2023-12-19T14:27:55.953Z,100494.47
2023-12-19T14:30:22.616Z,100491.38
2023-12-19T14:32:49.635Z,100496.22
2023-12-19T14:35:17.282Z,100494.66
2023-12-19T14:37:44.352Z,100481.75
2023-12-19T14:40:13.525Z,100487.09
2023-12-19T14:42:40.214Z,100480.16
2023-12-19T14:45:07.409Z,100457.56
2023-12-19T14:47:34.108Z,100460.72
2023-12-19T14:50:00.993Z,100459.22
2023-12-19T14:52:27.490Z,100458.19
2023-12-19T14:54:54.128Z,100450.78
2023-12-19T14:57:20.756Z,100445.13
2023-12-19T14:59:47.316Z,100440.00
2023-12-19T15:02:13.839Z,100437.47
2023-12-19T15:04:40.452Z,100438.03
2023-12-19T15:07:07.228Z,100433.34
2023-12-19T15:09:34.859Z,100426.41
2023-12-19T15:12:03.475Z,100426.97
2023-12-19T15:14:31.523Z,100418.72
2023-12-19T15:16:58.034Z,100410.09
2023-12-19T15:19:24.736Z,100401.03
2023-12-19T15:21:52.369Z,100399.06
2023-12-19T15:24:19.482Z,100407.59
2023-12-19T15:26:46.005Z,100407.41
2023-12-19T15:29:15.851Z,100388.25
2023-12-19T15:31:44.112Z,100397.41
2023-12-19T15:34:11.220Z,100387.75
2023-12-19T15:36:38.590Z,100393.00
2023-12-19T15:39:05.440Z,100378.38
2023-12-19T15:41:31.904Z,100391.47
2023-12-19T15:44:07.853Z,100382.38
2023-12-19T15:46:40.832Z,100378.75
2023-12-19T15:49:09.864Z,100376.44
2023-12-19T15:51:36.726Z,100375.03
2023-12-19T15:54:04.593Z,100371.84
2023-12-19T15:56:35.194Z,100376.06
2023-12-19T15:59:05.434Z,100363.44
2023-12-19T16:01:32.606Z,100364.56
2023-12-19T16:04:00.059Z,100367.34
2023-12-19T16:06:27.623Z,100365.13
2023-12-19T16:08:55.198Z,100365.97
2023-12-19T16:11:25.062Z,100357.47
2023-12-19T16:13:53.751Z,100365.66
2023-12-19T16:16:20.696Z,100358.97
2023-12-19T16:18:48.778Z,100350.53
2023-12-19T16:21:17.320Z,100361.84
2023-12-19T16:23:56.978Z,100367.66
2023-12-19T16:26:30.184Z,100355.69
2023-12-19T16:28:56.864Z,100353.03
2023-12-19T16:31:23.548Z,100353.09
2023-12-19T16:33:50.783Z,100342.66
2023-12-19T16:36:17.554Z,100352.00
2023-12-19T16:38:47.500Z,100346.31
2023-12-19T16:41:13.967Z,100345.50
2023-12-19T16:43:44.244Z,100347.72
2023-12-19T16:46:11.104Z,100353.50
2023-12-19T16:48:38.217Z,100356.50
2023-12-19T16:51:06.028Z,100347.13
2023-12-19T16:53:33.154Z,100356.59
2023-12-19T16:55:59.628Z,100349.72
2023-12-19T16:58:36.856Z,100344.13
2023-12-19T17:01:10.565Z,100348.59
2023-12-19T17:03:38.444Z,100358.16
2023-12-19T17:06:05.816Z,100351.13
2023-12-19T17:08:32.473Z,100346.59
2023-12-19T17:10:59.063Z,100350.91
2023-12-19T17:13:25.577Z,100359.19
2023-12-19T17:15:52.237Z,100344.69
2023-12-19T17:18:19.015Z,100342.44
2023-12-19T17:20:46.246Z,100339.78
2023-12-19T17:23:13.021Z,100336.16
2023-12-19T17:25:39.729Z,100326.16
2023-12-19T17:28:06.458Z,100323.66
2023-12-19T17:30:35.528Z,100325.97
2023-12-19T17:33:04.615Z,100324.00
2023-12-19T17:35:31.542Z,100325.75
2023-12-19T17:37:58.169Z,100318.16
2023-12-19T17:40:24.674Z,100321.09
2023-12-19T17:42:51.275Z,100323.44
2023-12-19T17:45:17.836Z,100323.03
2023-12-19T17:47:44.861Z,100319.72
2023-12-19T17:50:11.747Z,100330.97
2023-12-19T17:52:39.765Z,100322.94
2023-12-19T17:55:06.783Z,100322.22
2023-12-19T17:57:33.681Z,100318.84
2023-12-19T18:00:00.310Z,100314.13
2023-12-19T18:02:26.855Z,100312.47
2023-12-19T18:04:53.444Z,100304.09
2023-12-19T18:07:20.228Z,100301.63
2023-12-19T18:09:46.883Z,100291.47
2023-12-19T18:12:15.368Z,100290.34
2023-12-19T18:14:42.028Z,100290.09
2023-12-19T18:17:08.621Z,100269.63
2023-12-19T18:19:35.697Z,100268.22
2023-12-19T18:22:02.850Z,100270.44
2023-12-19T18:24:29.561Z,100262.63
2023-12-19T18:26:57.009Z,100261.44
2023-12-19T18:29:24.596Z,100251.94
2023-12-19T18:31:53.170Z,100252.34
2023-12-19T18:34:20.432Z,100249.66
2023-12-19T18:36:48.954Z,100247.53
2023-12-19T18:39:16.351Z,100240.28
2023-12-19T18:41:42.943Z,100251.63
2023-12-19T18:44:09.490Z,100243.03
2023-12-19T18:46:41.067Z,100235.66
2023-12-19T18:49:08.408Z,100241.06
2023-12-19T18:51:36.002Z,100254.16
2023-12-19T18:54:02.642Z,100251.25
2023-12-19T18:56:29.207Z,100252.81
2023-12-19T18:58:55.710Z,100253.63
2023-12-19T19:01:23.927Z,100251.97
2023-12-19T19:03:50.840Z,100244.59
2023-12-19T19:06:17.441Z,100249.31
2023-12-19T19:08:43.928Z,100241.41
2023-12-19T19:11:10.475Z,100232.50
2023-12-19T19:13:37.079Z,100221.22
2023-12-19T19:16:03.947Z,100216.19
2023-12-19T19:18:30.375Z,100211.97
2023-12-19T19:20:56.975Z,100219.53
2023-12-19T19:23:23.907Z,100217.31
2023-12-19T19:25:50.424Z,100218.72
2023-12-19T19:28:20.044Z,100214.09
2023-12-19T19:30:56.556Z,100212.59
2023-12-19T19:33:26.808Z,100204.06
2023-12-19T19:35:54.974Z,100200.84
2023-12-19T19:38:26.270Z,100200.59
2023-12-19T19:40:55.004Z,100198.66
2023-12-19T19:43:21.514Z,100200.88
2023-12-19T19:45:48.136Z,100205.00
2023-12-19T19:48:14.742Z,100206.25
2023-12-19T19:50:42.702Z,100206.00
2023-12-19T19:53:09.676Z,100185.88
2023-12-19T19:55:36.272Z,100185.56
2023-12-19T19:58:02.965Z,100178.75
2023-12-19T20:00:29.660Z,100185.16
2023-12-19T20:02:56.215Z,100182.50
2023-12-19T20:05:23.106Z,100175.63
2023-12-19T20:07:49.872Z,100167.63
2023-12-19T20:10:17.143Z,100181.69
2023-12-19T20:12:44.591Z,100169.75
2023-12-19T20:15:11.453Z,100174.72
2023-12-19T20:17:39.040Z,100171.72
2023-12-19T20:20:07.977Z,100165.75
2023-12-19T20:22:35.255Z,100163.19
2023-12-19T20:25:04.585Z,100150.16
2023-12-19T20:27:31.416Z,100154.72
2023-12-19T20:29:59.228Z,100155.47
2023-12-19T20:32:26.429Z,100162.03
2023-12-19T20:34:52.959Z,100156.16
2023-12-19T20:37:19.682Z,100146.09
2023-12-19T20:39:46.229Z,100145.31
2023-12-19T20:42:13.841Z,100140.56
2023-12-19T20:44:41.241Z,100144.34
2023-12-19T20:47:08.050Z,100146.66
2023-12-19T20:49:35.021Z,100143.47
2023-12-19T20:52:02.278Z,100139.44
2023-12-19T20:54:29.052Z,100136.13
2023-12-19T20:56:55.658Z,100140.03
2023-12-19T20:59:22.208Z,100139.38
2023-12-19T21:01:48.745Z,100139.13
2023-12-19T21:04:15.559Z,100134.53
2023-12-19T21:06:42.346Z,100130.28
2023-12-19T21:09:10.860Z,100122.22
2023-12-19T21:11:37.677Z,100126.41
2023-12-19T21:14:04.341Z,100127.72
2023-12-19T21:16:31.120Z,100122.34
2023-12-19T21:18:57.694Z,100117.75
2023-12-19T21:21:24.374Z,100113.53
2023-12-19T21:23:51.849Z,100103.16
2023-12-19T21:26:18.736Z,100100.44
2023-12-19T21:28:45.499Z,100100.75
2023-12-19T21:31:12.437Z,100100.44
2023-12-19T21:33:39.541Z,100090.53
2023-12-19T21:36:06.137Z,100083.31
2023-12-19T21:38:32.758Z,100079.38
2023-12-19T21:40:59.235Z,100076.47
2023-12-19T21:43:25.904Z,100074.03
2023-12-19T21:45:52.609Z,100060.09
2023-12-19T21:48:19.233Z,100062.84
2023-12-19T21:50:47.380Z,100065.47
2023-12-19T21:53:14.049Z,100064.88
2023-12-19T21:55:40.563Z,100051.13
2023-12-19T21:58:07.184Z,100048.13
2023-12-19T22:00:33.755Z,100055.53
2023-12-19T22:03:00.347Z,100052.28
2023-12-19T22:05:26.954Z,100042.09
2023-12-19T22:07:53.608Z,100046.44
2023-12-19T22:10:20.384Z,100040.00
2023-12-19T22:12:47.492Z,100033.34
2023-12-19T22:15:16.502Z,100035.16
2023-12-19T22:17:43.400Z,100026.47
2023-12-19T22:20:10.543Z,100028.34
2023-12-19T22:22:37.239Z,100012.41
2023-12-19T22:25:04.081Z,100010.28
2023-12-19T22:27:30.561Z,100002.56
2023-12-19T22:29:57.071Z,99997.19
2023-12-19T22:32:24.284Z,99992.44
2023-12-19T22:34:50.912Z,99994.47
2023-12-19T22:37:17.699Z,99991.84
2023-12-19T22:39:44.364Z,99981.56
2023-12-19T22:42:10.924Z,99979.34
2023-12-19T22:44:37.441Z,99967.19
2023-12-19T22:47:04.667Z,99965.25
2023-12-19T22:49:32.870Z,99947.44
2023-12-19T22:51:59.990Z,99952.47
2023-12-19T22:54:26.539Z,99951.50
2023-12-19T22:56:53.116Z,99944.38
2023-12-19T22:59:19.684Z,99944.09
2023-12-19T23:01:53.465Z,99940.91
2023-12-19T23:04:21.399Z,99930.25
2023-12-19T23:06:48.115Z,99939.56
2023-12-19T23:09:14.825Z,99935.50
2023-12-19T23:11:41.594Z,99931.06
2023-12-19T23:14:08.746Z,99935.38
2023-12-19T23:16:35.528Z,99939.69
2023-12-19T23:19:02.389Z,99930.25
2023-12-19T23:21:29.361Z,99927.47
2023-12-19T23:23:55.904Z,99921.09
2023-12-19T23:26:23.494Z,99919.69
2023-12-19T23:28:49.994Z,99918.94
2023-12-19T23:31:21.734Z,99914.09
2023-12-19T23:33:51.470Z,99904.13
2023-12-19T23:36:18.311Z,99901.66
2023-12-19T23:38:45.315Z,99904.53
2023-12-19T23:41:18.998Z,99899.47
2023-12-19T23:43:46.453Z,99907.47
2023-12-19T23:46:20.841Z,99894.16
2023-12-19T23:48:47.822Z,99892.47
2023-12-19T23:51:16.195Z,99891.22
2023-12-19T23:53:43.543Z,99889.28
2023-12-19T23:56:10.404Z,99883.88
2023-12-19T23:58:37.214Z,99876.06
